Bitflower — SBJE — position and weather

sailwx.info

Track history (hours):
 
Tides and Currents Weather Stations Pressure Air Temp Water Temp Dewpoint Dewpoint Depression Visibility Wind Speed Wind Dir Waves Ship Positions

Bitflower

Last reported at 2014-Jul-26 04:34 UTC. Time now 2014-Jul-26 05:12 UTC.
Position N 55°25' E 012°41'.

Length 116 m; draft 6.4 m.

Type: Ship. MMSI: 266009000.

Date/timePositionNaut miles runAvg speedWind from/ knotsBaromVisibWave heightAir tempDewpointWater temp
2014-Jul-26 04:34N 55°25' E 012°41'10 9.5
2014-Jul-26 03:33N 55°17' E 012°49'1311.6
2014-Jul-26 02:27N 55°15' E 013°11'1212.1
2014-Jul-26 01:29N 55°14' E 013°32'1412.2
2014-Jul-26 00:21N 55°13' E 013°56'1012.2
2014-Jul-25 23:31N 55°14' E 014°14'1111.6
2014-Jul-25 22:33N 55°22' E 014°27'1212.4
2014-Jul-25 21:33N 55°30' E 014°43'1312.7
2014-Jul-25 20:33N 55°37' E 015°02'1313.0
2014-Jul-25 19:33N 55°43' E 015°22'1313.5
2014-Jul-25 18:33N 55°50' E 015°43'1413.8
2014-Jul-25 17:33N 55°56' E 016°05'1413.9
2014-Jul-25 16:33N 56°03' E 016°27'1413.6
2014-Jul-25 15:32N 56°12' E 016°46'1413.9
2014-Jul-25 14:33N 56°25' E 016°52'1414.1
2014-Jul-25 13:33N 56°38' E 016°58'1414.0
2014-Jul-25 12:33N 56°52' E 017°05'1414.0
2014-Jul-25 11:33N 57°05' E 017°12'1414.0
2014-Jul-25 10:33N 57°19' E 017°18'1414.0
2014-Jul-25 09:33N 57°33' E 017°24'1413.8
2014-Jul-25 08:33N 57°46' E 017°30'1413.8
2014-Jul-25 07:33N 57°60' E 017°36'1413.7
2014-Jul-25 06:33N 58°13' E 017°42'28 1.2
2014-Jul-24 07:21N 58°37' E 017°14'1114.2
2014-Jul-24 06:33N 58°36' E 016°52'1313.3
2014-Jul-24 05:33N 58°39' E 016°27'7 6.6
2014-Jul-24 04:32N 58°37' E 016°15'0 0.0
2014-Jul-24 03:32N 58°37' E 016°15'0 0.0
2014-Jul-24 02:32N 58°37' E 016°15'0 0.0
2014-Jul-24 01:32N 58°37' E 016°15'0 0.0
2014-Jul-24 00:32N 58°37' E 016°15'0 0.0
2014-Jul-23 23:32N 58°37' E 016°15'0 0.0
2014-Jul-23 22:32N 58°37' E 016°15'0 0.0
2014-Jul-23 21:32N 58°37' E 016°15'0 0.0
2014-Jul-23 20:32N 58°37' E 016°15'0 0.0
2014-Jul-23 19:32N 58°37' E 016°15'0 0.0
2014-Jul-23 18:32N 58°37' E 016°15'0 0.0
2014-Jul-23 17:32N 58°37' E 016°15'0 0.0
2014-Jul-23 16:32N 58°37' E 016°15'0 0.0
2014-Jul-23 15:32N 58°37' E 016°15'0 0.0
2014-Jul-23 14:32N 58°37' E 016°15'0 0.0
2014-Jul-23 13:33N 58°37' E 016°15'5 4.7
2014-Jul-23 12:33N 58°39' E 016°23'1312.7
2014-Jul-23 11:33N 58°37' E 016°48'43 9.7
2014-Jul-23 07:08N 57°59' E 017°25'813.6
2014-Jul-23 06:33N 57°51' E 017°24'1413.5
2014-Jul-23 05:30N 57°37' E 017°22'1313.3
2014-Jul-23 04:33N 57°25' E 017°20'1313.0
2014-Jul-23 03:33N 57°12' E 017°16'1313.0
2014-Jul-23 02:33N 56°59' E 017°11'1313.2
2014-Jul-23 01:33N 56°46' E 017°06'1313.5
2014-Jul-23 00:33N 56°33' E 017°00'1413.3
2014-Jul-22 23:31N 56°19' E 016°55'1313.3
2014-Jul-22 22:33N 56°07' E 016°50'1913.1
2014-Jul-22 21:05N 55°55' E 016°23'1313.5
2014-Jul-22 20:05N 55°49' E 016°02'713.5
2014-Jul-22 19:32N 55°45' E 015°50'1313.6
2014-Jul-22 18:33N 55°39' E 015°30'1513.3
2014-Jul-22 17:25N 55°31' E 015°06'1113.3
2014-Jul-22 16:33N 55°26' E 014°48'1312.9
2014-Jul-22 15:33N 55°18' E 014°31'1312.5
2014-Jul-22 14:33N 55°08' E 014°17'1212.7
2014-Jul-22 13:33N 54°59' E 014°01'1313.0
2014-Jul-22 12:33N 54°55' E 013°40'1313.0
2014-Jul-22 11:32N 54°52' E 013°18'1313.1
2014-Jul-22 10:30N 54°47' E 012°55'1212.8
2014-Jul-22 09:33N 54°42' E 012°36'1612.2
2014-Jul-22 08:14N 54°31' E 012°16'811.7
2014-Jul-22 07:33N 54°25' E 012°08'1312.7
2014-Jul-22 06:33N 54°25' E 011°46'1312.8
2014-Jul-22 05:33N 54°30' E 011°26'1212.2
2014-Jul-22 04:33N 54°35' E 011°07'1813.0
2014-Jul-22 03:13N 54°34' E 010°37'912.5
2014-Jul-22 02:29N 54°30' E 010°23'42 6.5
2014-Jul-21 20:04N 54°09' E 009°21'6 8.3
2014-Jul-21 19:24N 54°03' E 009°19'6 6.6
2014-Jul-21 18:30N 53°58' E 009°15'6 4.9
2014-Jul-21 17:22N 53°54' E 009°09'2 1.9
2014-Jul-21 16:32N 53°53' E 009°06'1 1.0
2014-Jul-21 15:33N 53°53' E 009°05'8 8.0
2014-Jul-21 14:33N 53°50' E 008°52'1010.3
2014-Jul-21 13:33N 53°57' E 008°38'1211.7
2014-Jul-21 12:33N 53°59' E 008°19'4212.6
2014-Jul-21 09:11N 53°52' E 007°08'4712.9
2014-Jul-21 05:33N 53°39' E 005°52'1313.4
2014-Jul-21 04:33N 53°35' E 005°31'1413.7
2014-Jul-21 03:31N 53°30' E 005°08'1314.0
2014-Jul-21 02:34N 53°24' E 004°48'6014.2
2014-Jul-20 22:20N 52°35' E 003°51'1514.2
2014-Jul-20 21:19N 52°23' E 003°38'3214.7
2014-Jul-20 19:09N 51°53' E 003°21'2111.6
2014-Jul-20 17:22N 51°32' E 003°25'911.1
2014-Jul-20 16:33N 51°26' E 003°36'1111.0
2014-Jul-20 15:33N 51°21' E 003°51'8 8.0
2014-Jul-20 14:33N 51°22' E 004°04'9 8.6
2014-Jul-20 13:33N 51°21' E 004°17'0 0.5
2014-Jul-20 12:33N 51°20' E 004°18'4 4.1
2014-Jul-20 11:33N 51°17' E 004°21'1 1.0
2014-Jul-20 10:32N 51°16' E 004°20'0 0.0
2014-Jul-20 09:29N 51°16' E 004°20'0 0.0
2014-Jul-20 08:32N 51°16' E 004°20'0 0.0
2014-Jul-20 07:29N 51°16' E 004°20'0 0.0
2014-Jul-20 06:32N 51°16' E 004°20'0 0.0
2014-Jul-20 05:29N 51°16' E 004°20'0 0.0
2014-Jul-20 04:29N 51°16' E 004°20'0 0.0
2014-Jul-20 03:32N 51°16' E 004°20'0 0.0
2014-Jul-20 02:29N 51°16' E 004°20'0 0.0
2014-Jul-20 01:26N 51°16' E 004°20'0 0.0
2014-Jul-20 00:32N 51°16' E 004°20'0 0.0
2014-Jul-19 23:30N 51°16' E 004°20'0 0.0
2014-Jul-19 22:30N 51°16' E 004°20'0 0.0
2014-Jul-19 21:32N 51°16' E 004°20'0 0.0
2014-Jul-19 20:32N 51°16' E 004°20'0 0.0
2014-Jul-19 19:26N 51°16' E 004°20'0 0.0
2014-Jul-19 18:29N 51°16' E 004°20'0 0.0
2014-Jul-19 17:30N 51°16' E 004°20'0 0.0
2014-Jul-19 16:30N 51°16' E 004°20'0 0.0
2014-Jul-19 15:30N 51°16' E 004°20'0 0.0
2014-Jul-19 14:32N 51°16' E 004°20'0 0.0
2014-Jul-19 13:26N 51°16' E 004°20'0 0.0
2014-Jul-19 12:30N 51°16' E 004°20'0 0.0
2014-Jul-19 11:30N 51°16' E 004°20'0 0.0
2014-Jul-19 10:32N 51°16' E 004°20'0 0.0
2014-Jul-19 09:29N 51°16' E 004°20'0 0.0
2014-Jul-19 08:32N 51°16' E 004°20'0 0.0
2014-Jul-19 07:29N 51°16' E 004°20'0 0.0
2014-Jul-19 06:23N 51°16' E 004°20'0 0.0
2014-Jul-19 05:32N 51°16' E 004°20'0 0.0
2014-Jul-19 04:32N 51°16' E 004°20'0 0.0
2014-Jul-19 03:29N 51°16' E 004°20'0 0.0
2014-Jul-19 02:32N 51°16' E 004°20'0 0.0
2014-Jul-19 01:29N 51°16' E 004°20'0 0.0
2014-Jul-19 00:26N 51°16' E 004°20'0 0.3
2014-Jul-18 23:34N 51°16' E 004°20'5 5.2
2014-Jul-18 22:33N 51°21' E 004°17'0 0.0
2014-Jul-18 21:34N 51°21' E 004°17'1 1.4
2014-Jul-18 20:33N 51°21' E 004°15'4 3.7
2014-Jul-18 19:33N 51°24' E 004°11'6 6.3
2014-Jul-18 18:34N 51°25' E 004°01'1010.4
2014-Jul-18 17:34N 51°21' E 003°46'9 9.0
2014-Jul-18 16:33N 51°26' E 003°34'6 6.2
2014-Jul-18 15:31N 51°31' E 003°26'19 9.3
2014-Jul-18 13:31N 51°47' E 003°11'1414.1
2014-Jul-18 12:30N 52°00' E 003°20'1515.8
2014-Jul-18 11:32N 52°15' E 003°24'1515.1
2014-Jul-18 10:33N 52°30' E 003°28'1413.9
2014-Jul-18 09:33N 52°43' E 003°36'3013.2
2014-Jul-18 07:18N 53°04' E 004°12'1013.6
2014-Jul-18 06:32N 53°11' E 004°24'1414.5
2014-Jul-18 05:33N 53°24' E 004°35'1515.0
2014-Jul-18 04:33N 53°32' E 004°55'1615.5
2014-Jul-18 03:33N 53°38' E 005°20'1515.0
2014-Jul-18 02:34N 53°43' E 005°44'1414.2
2014-Jul-18 01:33N 53°47' E 006°06'1413.4
2014-Jul-18 00:33N 53°51' E 006°28'1413.2
2014-Jul-17 23:30N 53°55' E 006°51'1313.5
2014-Jul-17 22:33N 53°58' E 007°12'1414.3
2014-Jul-17 21:33N 54°01' E 007°36'1515.1
2014-Jul-17 20:33N 54°01' E 008°01'1616.1
2014-Jul-17 19:33N 53°59' E 008°28'1616.0
2014-Jul-17 18:33N 53°50' E 008°52'1413.0
2014-Jul-17 17:29N 53°53' E 009°15'1111.6
2014-Jul-17 16:33N 53°44' E 009°26'1110.8
2014-Jul-17 15:33N 53°35' E 009°37'1010.0
2014-Jul-17 14:33N 53°33' E 009°53'5 4.4
2014-Jul-17 13:29N 53°29' E 009°58'0 0.0
2014-Jul-17 12:31N 53°29' E 009°58'0 0.0
2014-Jul-17 11:31N 53°29' E 009°58'0 0.0
2014-Jul-17 10:25N 53°29' E 009°58'0 0.0
2014-Jul-17 09:29N 53°29' E 009°58'0 0.0
2014-Jul-17 08:32N 53°29' E 009°58'0 0.0
2014-Jul-17 07:32N 53°29' E 009°58'0 0.0
2014-Jul-17 06:32N 53°29' E 009°58'0 0.0
2014-Jul-17 05:32N 53°29' E 009°58'0 0.0
2014-Jul-17 04:32N 53°29' E 009°58'0 0.0
2014-Jul-17 03:32N 53°29' E 009°58'0 0.0
2014-Jul-17 02:32N 53°29' E 009°58'0 0.0
2014-Jul-17 01:29N 53°29' E 009°58'0 0.0
2014-Jul-17 00:32N 53°29' E 009°58'0 0.0
2014-Jul-16 23:32N 53°29' E 009°58'0 0.0
2014-Jul-16 22:29N 53°29' E 009°58'0 0.0
2014-Jul-16 21:32N 53°29' E 009°58'0 0.0
2014-Jul-16 20:32N 53°29' E 009°58'0 0.0
2014-Jul-16 19:32N 53°29' E 009°58'0 0.0
2014-Jul-16 18:32N 53°29' E 009°58'0 0.0
2014-Jul-16 17:29N 53°29' E 009°58'0 0.0
2014-Jul-16 16:33N 53°29' E 009°58'3 3.0
2014-Jul-16 15:33N 53°32' E 009°56'4 4.4
2014-Jul-16 14:33N 53°33' E 009°49'8 8.4
2014-Jul-16 13:33N 53°36' E 009°36'1212.2
2014-Jul-16 12:32N 53°46' E 009°24'1010.3
2014-Jul-16 11:33N 53°53' E 009°11'7 7.4
2014-Jul-16 10:33N 53°51' E 008°59'7 7.2
2014-Jul-16 09:33N 53°50' E 008°47'9 9.4
2014-Jul-16 08:33N 53°57' E 008°36'1010.5
2014-Jul-16 07:33N 53°59' E 008°19'1111.2
2014-Jul-16 06:33N 54°01' E 007°60'1212.0
2014-Jul-16 05:33N 54°07' E 007°42'  
Track history (hours):
 
Tides and Currents Weather Stations Pressure Air Temp Water Temp Dewpoint Dewpoint Depression Visibility Wind Speed Wind Dir Waves Ship Positions

Bitflower

Last reported at 2014-Jul-26 04:34 UTC. Time now 2014-Jul-26 05:12 UTC.
Position N 55°25' E 012°41'.

Length 116 m; draft 6.4 m.

Type: Ship. MMSI: 266009000.

Date/timePositionNaut miles runAvg speedWind from/ knotsBaromVisibWave heightAir tempDewpointWater temp
2014-Jul-26 04:34N 55°25' E 012°41'10 9.5
2014-Jul-26 03:33N 55°17' E 012°49'1311.6
2014-Jul-26 02:27N 55°15' E 013°11'1212.1
2014-Jul-26 01:29N 55°14' E 013°32'1412.2
2014-Jul-26 00:21N 55°13' E 013°56'1012.2
2014-Jul-25 23:31N 55°14' E 014°14'1111.6
2014-Jul-25 22:33N 55°22' E 014°27'1212.4
2014-Jul-25 21:33N 55°30' E 014°43'1312.7
2014-Jul-25 20:33N 55°37' E 015°02'1313.0
2014-Jul-25 19:33N 55°43' E 015°22'1313.5
2014-Jul-25 18:33N 55°50' E 015°43'1413.8
2014-Jul-25 17:33N 55°56' E 016°05'1413.9
2014-Jul-25 16:33N 56°03' E 016°27'1413.6
2014-Jul-25 15:32N 56°12' E 016°46'1413.9
2014-Jul-25 14:33N 56°25' E 016°52'1414.1
2014-Jul-25 13:33N 56°38' E 016°58'1414.0
2014-Jul-25 12:33N 56°52' E 017°05'1414.0
2014-Jul-25 11:33N 57°05' E 017°12'1414.0
2014-Jul-25 10:33N 57°19' E 017°18'1414.0
2014-Jul-25 09:33N 57°33' E 017°24'1413.8
2014-Jul-25 08:33N 57°46' E 017°30'1413.8
2014-Jul-25 07:33N 57°60' E 017°36'1413.7
2014-Jul-25 06:33N 58°13' E 017°42'28 1.2
2014-Jul-24 07:21N 58°37' E 017°14'1114.2
2014-Jul-24 06:33N 58°36' E 016°52'1313.3
2014-Jul-24 05:33N 58°39' E 016°27'7 6.6
2014-Jul-24 04:32N 58°37' E 016°15'0 0.0
2014-Jul-24 03:32N 58°37' E 016°15'0 0.0
2014-Jul-24 02:32N 58°37' E 016°15'0 0.0
2014-Jul-24 01:32N 58°37' E 016°15'0 0.0
2014-Jul-24 00:32N 58°37' E 016°15'0 0.0
2014-Jul-23 23:32N 58°37' E 016°15'0 0.0
2014-Jul-23 22:32N 58°37' E 016°15'0 0.0
2014-Jul-23 21:32N 58°37' E 016°15'0 0.0
2014-Jul-23 20:32N 58°37' E 016°15'0 0.0
2014-Jul-23 19:32N 58°37' E 016°15'0 0.0
2014-Jul-23 18:32N 58°37' E 016°15'0 0.0
2014-Jul-23 17:32N 58°37' E 016°15'0 0.0
2014-Jul-23 16:32N 58°37' E 016°15'0 0.0
2014-Jul-23 15:32N 58°37' E 016°15'0 0.0
2014-Jul-23 14:32N 58°37' E 016°15'0 0.0
2014-Jul-23 13:33N 58°37' E 016°15'5 4.7
2014-Jul-23 12:33N 58°39' E 016°23'1312.7
2014-Jul-23 11:33N 58°37' E 016°48'43 9.7
2014-Jul-23 07:08N 57°59' E 017°25'813.6
2014-Jul-23 06:33N 57°51' E 017°24'1413.5
2014-Jul-23 05:30N 57°37' E 017°22'1313.3
2014-Jul-23 04:33N 57°25' E 017°20'1313.0
2014-Jul-23 03:33N 57°12' E 017°16'1313.0
2014-Jul-23 02:33N 56°59' E 017°11'1313.2
2014-Jul-23 01:33N 56°46' E 017°06'1313.5
2014-Jul-23 00:33N 56°33' E 017°00'1413.3
2014-Jul-22 23:31N 56°19' E 016°55'1313.3
2014-Jul-22 22:33N 56°07' E 016°50'1913.1
2014-Jul-22 21:05N 55°55' E 016°23'1313.5
2014-Jul-22 20:05N 55°49' E 016°02'713.5
2014-Jul-22 19:32N 55°45' E 015°50'1313.6
2014-Jul-22 18:33N 55°39' E 015°30'1513.3
2014-Jul-22 17:25N 55°31' E 015°06'1113.3
2014-Jul-22 16:33N 55°26' E 014°48'1312.9
2014-Jul-22 15:33N 55°18' E 014°31'1312.5
2014-Jul-22 14:33N 55°08' E 014°17'1212.7
2014-Jul-22 13:33N 54°59' E 014°01'1313.0
2014-Jul-22 12:33N 54°55' E 013°40'1313.0
2014-Jul-22 11:32N 54°52' E 013°18'1313.1
2014-Jul-22 10:30N 54°47' E 012°55'1212.8
2014-Jul-22 09:33N 54°42' E 012°36'1612.2
2014-Jul-22 08:14N 54°31' E 012°16'811.7
2014-Jul-22 07:33N 54°25' E 012°08'1312.7
2014-Jul-22 06:33N 54°25' E 011°46'1312.8
2014-Jul-22 05:33N 54°30' E 011°26'1212.2
2014-Jul-22 04:33N 54°35' E 011°07'1813.0
2014-Jul-22 03:13N 54°34' E 010°37'912.5
2014-Jul-22 02:29N 54°30' E 010°23'42 6.5
2014-Jul-21 20:04N 54°09' E 009°21'6 8.3
2014-Jul-21 19:24N 54°03' E 009°19'6 6.6
2014-Jul-21 18:30N 53°58' E 009°15'6 4.9
2014-Jul-21 17:22N 53°54' E 009°09'2 1.9
2014-Jul-21 16:32N 53°53' E 009°06'1 1.0
2014-Jul-21 15:33N 53°53' E 009°05'8 8.0
2014-Jul-21 14:33N 53°50' E 008°52'1010.3
2014-Jul-21 13:33N 53°57' E 008°38'1211.7
2014-Jul-21 12:33N 53°59' E 008°19'4212.6
2014-Jul-21 09:11N 53°52' E 007°08'4712.9
2014-Jul-21 05:33N 53°39' E 005°52'1313.4
2014-Jul-21 04:33N 53°35' E 005°31'1413.7
2014-Jul-21 03:31N 53°30' E 005°08'1314.0
2014-Jul-21 02:34N 53°24' E 004°48'6014.2
2014-Jul-20 22:20N 52°35' E 003°51'1514.2
2014-Jul-20 21:19N 52°23' E 003°38'3214.7
2014-Jul-20 19:09N 51°53' E 003°21'2111.6
2014-Jul-20 17:22N 51°32' E 003°25'911.1
2014-Jul-20 16:33N 51°26' E 003°36'1111.0
2014-Jul-20 15:33N 51°21' E 003°51'8 8.0
2014-Jul-20 14:33N 51°22' E 004°04'9 8.6
2014-Jul-20 13:33N 51°21' E 004°17'0 0.5
2014-Jul-20 12:33N 51°20' E 004°18'4 4.1
2014-Jul-20 11:33N 51°17' E 004°21'1 1.0
2014-Jul-20 10:32N 51°16' E 004°20'0 0.0
2014-Jul-20 09:29N 51°16' E 004°20'0 0.0
2014-Jul-20 08:32N 51°16' E 004°20'0 0.0
2014-Jul-20 07:29N 51°16' E 004°20'0 0.0
2014-Jul-20 06:32N 51°16' E 004°20'0 0.0
2014-Jul-20 05:29N 51°16' E 004°20'0 0.0
2014-Jul-20 04:29N 51°16' E 004°20'0 0.0
2014-Jul-20 03:32N 51°16' E 004°20'0 0.0
2014-Jul-20 02:29N 51°16' E 004°20'0 0.0
2014-Jul-20 01:26N 51°16' E 004°20'0 0.0
2014-Jul-20 00:32N 51°16' E 004°20'0 0.0
2014-Jul-19 23:30N 51°16' E 004°20'0 0.0
2014-Jul-19 22:30N 51°16' E 004°20'0 0.0
2014-Jul-19 21:32N 51°16' E 004°20'0 0.0
2014-Jul-19 20:32N 51°16' E 004°20'0 0.0
2014-Jul-19 19:26N 51°16' E 004°20'0 0.0
2014-Jul-19 18:29N 51°16' E 004°20'0 0.0
2014-Jul-19 17:30N 51°16' E 004°20'0 0.0
2014-Jul-19 16:30N 51°16' E 004°20'0 0.0
2014-Jul-19 15:30N 51°16' E 004°20'0 0.0
2014-Jul-19 14:32N 51°16' E 004°20'0 0.0
2014-Jul-19 13:26N 51°16' E 004°20'0 0.0
2014-Jul-19 12:30N 51°16' E 004°20'0 0.0
2014-Jul-19 11:30N 51°16' E 004°20'0 0.0
2014-Jul-19 10:32N 51°16' E 004°20'0 0.0
2014-Jul-19 09:29N 51°16' E 004°20'0 0.0
2014-Jul-19 08:32N 51°16' E 004°20'0 0.0
2014-Jul-19 07:29N 51°16' E 004°20'0 0.0
2014-Jul-19 06:23N 51°16' E 004°20'0 0.0
2014-Jul-19 05:32N 51°16' E 004°20'0 0.0
2014-Jul-19 04:32N 51°16' E 004°20'0 0.0
2014-Jul-19 03:29N 51°16' E 004°20'0 0.0
2014-Jul-19 02:32N 51°16' E 004°20'0 0.0
2014-Jul-19 01:29N 51°16' E 004°20'0 0.0
2014-Jul-19 00:26N 51°16' E 004°20'0 0.3
2014-Jul-18 23:34N 51°16' E 004°20'5 5.2
2014-Jul-18 22:33N 51°21' E 004°17'0 0.0
2014-Jul-18 21:34N 51°21' E 004°17'1 1.4
2014-Jul-18 20:33N 51°21' E 004°15'4 3.7
2014-Jul-18 19:33N 51°24' E 004°11'6 6.3
2014-Jul-18 18:34N 51°25' E 004°01'1010.4
2014-Jul-18 17:34N 51°21' E 003°46'9 9.0
2014-Jul-18 16:33N 51°26' E 003°34'6 6.2
2014-Jul-18 15:31N 51°31' E 003°26'19 9.3
2014-Jul-18 13:31N 51°47' E 003°11'1414.1
2014-Jul-18 12:30N 52°00' E 003°20'1515.8
2014-Jul-18 11:32N 52°15' E 003°24'1515.1
2014-Jul-18 10:33N 52°30' E 003°28'1413.9
2014-Jul-18 09:33N 52°43' E 003°36'3013.2
2014-Jul-18 07:18N 53°04' E 004°12'1013.6
2014-Jul-18 06:32N 53°11' E 004°24'1414.5
2014-Jul-18 05:33N 53°24' E 004°35'1515.0
2014-Jul-18 04:33N 53°32' E 004°55'1615.5
2014-Jul-18 03:33N 53°38' E 005°20'1515.0
2014-Jul-18 02:34N 53°43' E 005°44'1414.2
2014-Jul-18 01:33N 53°47' E 006°06'1413.4
2014-Jul-18 00:33N 53°51' E 006°28'1413.2
2014-Jul-17 23:30N 53°55' E 006°51'1313.5
2014-Jul-17 22:33N 53°58' E 007°12'1414.3
2014-Jul-17 21:33N 54°01' E 007°36'1515.1
2014-Jul-17 20:33N 54°01' E 008°01'1616.1
2014-Jul-17 19:33N 53°59' E 008°28'1616.0
2014-Jul-17 18:33N 53°50' E 008°52'1413.0
2014-Jul-17 17:29N 53°53' E 009°15'1111.6
2014-Jul-17 16:33N 53°44' E 009°26'1110.8
2014-Jul-17 15:33N 53°35' E 009°37'1010.0
2014-Jul-17 14:33N 53°33' E 009°53'5 4.4
2014-Jul-17 13:29N 53°29' E 009°58'0 0.0
2014-Jul-17 12:31N 53°29' E 009°58'0 0.0
2014-Jul-17 11:31N 53°29' E 009°58'0 0.0
2014-Jul-17 10:25N 53°29' E 009°58'0 0.0
2014-Jul-17 09:29N 53°29' E 009°58'0 0.0
2014-Jul-17 08:32N 53°29' E 009°58'0 0.0
2014-Jul-17 07:32N 53°29' E 009°58'0 0.0
2014-Jul-17 06:32N 53°29' E 009°58'0 0.0
2014-Jul-17 05:32N 53°29' E 009°58'0 0.0
2014-Jul-17 04:32N 53°29' E 009°58'0 0.0
2014-Jul-17 03:32N 53°29' E 009°58'0 0.0
2014-Jul-17 02:32N 53°29' E 009°58'0 0.0
2014-Jul-17 01:29N 53°29' E 009°58'0 0.0
2014-Jul-17 00:32N 53°29' E 009°58'0 0.0
2014-Jul-16 23:32N 53°29' E 009°58'0 0.0
2014-Jul-16 22:29N 53°29' E 009°58'0 0.0
2014-Jul-16 21:32N 53°29' E 009°58'0 0.0
2014-Jul-16 20:32N 53°29' E 009°58'0 0.0
2014-Jul-16 19:32N 53°29' E 009°58'0 0.0
2014-Jul-16 18:32N 53°29' E 009°58'0 0.0
2014-Jul-16 17:29N 53°29' E 009°58'0 0.0
2014-Jul-16 16:33N 53°29' E 009°58'3 3.0
2014-Jul-16 15:33N 53°32' E 009°56'4 4.4
2014-Jul-16 14:33N 53°33' E 009°49'8 8.4
2014-Jul-16 13:33N 53°36' E 009°36'1212.2
2014-Jul-16 12:32N 53°46' E 009°24'1010.3
2014-Jul-16 11:33N 53°53' E 009°11'7 7.4
2014-Jul-16 10:33N 53°51' E 008°59'7 7.2
2014-Jul-16 09:33N 53°50' E 008°47'9 9.4
2014-Jul-16 08:33N 53°57' E 008°36'1010.5
2014-Jul-16 07:33N 53°59' E 008°19'1111.2
2014-Jul-16 06:33N 54°01' E 007°60'1212.0
2014-Jul-16 05:33N 54°07' E 007°42'  

Dump ship's entire track history